sensor_id;sensor_type;location;lat;lon;timestamp;P1;durP1;ratioP1;P2;durP2;ratioP2
32295;SDS011;18781;51.550;5.418;2023-11-18T00:01:48;35.03;;;20.33;;
32295;SDS011;18781;51.550;5.418;2023-11-18T00:04:14;45.88;;;25.73;;
32295;SDS011;18781;51.550;5.418;2023-11-18T00:06:43;58.65;;;28.85;;
32295;SDS011;18781;51.550;5.418;2023-11-18T00:09:09;57.92;;;28.38;;
32295;SDS011;18781;51.550;5.418;2023-11-18T00:11:39;58.28;;;31.75;;
32295;SDS011;18781;51.550;5.418;2023-11-18T00:14:06;57.30;;;32.00;;
32295;SDS011;18781;51.550;5.418;2023-11-18T00:16:32;52.65;;;28.42;;
32295;SDS011;18781;51.550;5.418;2023-11-18T00:18:59;48.22;;;27.85;;
32295;SDS011;18781;51.550;5.418;2023-11-18T00:21:25;41.70;;;25.90;;
32295;SDS011;18781;51.550;5.418;2023-11-18T00:23:50;39.40;;;23.15;;
32295;SDS011;18781;51.550;5.418;2023-11-18T00:26:16;44.15;;;24.52;;
32295;SDS011;18781;51.550;5.418;2023-11-18T00:28:42;44.33;;;24.77;;
32295;SDS011;18781;51.550;5.418;2023-11-18T00:31:07;39.40;;;22.92;;
32295;SDS011;18781;51.550;5.418;2023-11-18T00:33:33;45.97;;;23.73;;
32295;SDS011;18781;51.550;5.418;2023-11-18T00:35:58;40.00;;;22.40;;
32295;SDS011;18781;51.550;5.418;2023-11-18T00:38:25;38.03;;;22.63;;
32295;SDS011;18781;51.550;5.418;2023-11-18T00:40:51;44.22;;;22.50;;
32295;SDS011;18781;51.550;5.418;2023-11-18T00:43:17;47.70;;;24.60;;
32295;SDS011;18781;51.550;5.418;2023-11-18T00:45:43;48.40;;;27.73;;
32295;SDS011;18781;51.550;5.418;2023-11-18T00:48:08;42.42;;;25.45;;
32295;SDS011;18781;51.550;5.418;2023-11-18T00:50:34;42.78;;;24.23;;
32295;SDS011;18781;51.550;5.418;2023-11-18T00:53:00;40.47;;;23.85;;
32295;SDS011;18781;51.550;5.418;2023-11-18T00:55:26;37.28;;;23.85;;
32295;SDS011;18781;51.550;5.418;2023-11-18T00:57:52;45.25;;;23.55;;
32295;SDS011;18781;51.550;5.418;2023-11-18T01:00:18;37.90;;;21.45;;
32295;SDS011;18781;51.550;5.418;2023-11-18T01:02:46;37.90;;;21.25;;
32295;SDS011;18781;51.550;5.418;2023-11-18T01:05:13;32.22;;;21.20;;
32295;SDS011;18781;51.550;5.418;2023-11-18T01:07:40;35.97;;;21.75;;
32295;SDS011;18781;51.550;5.418;2023-11-18T01:10:06;41.47;;;22.08;;
32295;SDS011;18781;51.550;5.418;2023-11-18T01:12:32;39.88;;;22.25;;
32295;SDS011;18781;51.550;5.418;2023-11-18T01:14:58;34.85;;;21.33;;
32295;SDS011;18781;51.550;5.418;2023-11-18T01:17:24;37.90;;;22.48;;
32295;SDS011;18781;51.550;5.418;2023-11-18T01:19:50;37.45;;;21.33;;
32295;SDS011;18781;51.550;5.418;2023-11-18T01:22:15;39.05;;;23.27;;
32295;SDS011;18781;51.550;5.418;2023-11-18T01:24:43;37.00;;;23.17;;
32295;SDS011;18781;51.550;5.418;2023-11-18T01:27:09;39.13;;;22.20;;
32295;SDS011;18781;51.550;5.418;2023-11-18T01:29:35;36.55;;;22.60;;
32295;SDS011;18781;51.550;5.418;2023-11-18T01:32:00;37.20;;;21.67;;
32295;SDS011;18781;51.550;5.418;2023-11-18T01:34:33;34.60;;;21.58;;
32295;SDS011;18781;51.550;5.418;2023-11-18T01:36:59;43.20;;;23.17;;
32295;SDS011;18781;51.550;5.418;2023-11-18T01:39:25;36.92;;;21.50;;
32295;SDS011;18781;51.550;5.418;2023-11-18T01:41:51;37.22;;;21.63;;
32295;SDS011;18781;51.550;5.418;2023-11-18T01:44:17;35.05;;;21.98;;
32295;SDS011;18781;51.550;5.418;2023-11-18T01:46:44;34.97;;;22.60;;
32295;SDS011;18781;51.550;5.418;2023-11-18T01:49:11;43.83;;;22.92;;
32295;SDS011;18781;51.550;5.418;2023-11-18T01:51:42;34.80;;;22.20;;
32295;SDS011;18781;51.550;5.418;2023-11-18T01:54:10;37.65;;;21.67;;
32295;SDS011;18781;51.550;5.418;2023-11-18T01:56:40;35.53;;;22.05;;
32295;SDS011;18781;51.550;5.418;2023-11-18T01:59:09;37.53;;;22.80;;
32295;SDS011;18781;51.550;5.418;2023-11-18T02:01:35;36.70;;;22.83;;
32295;SDS011;18781;51.550;5.418;2023-11-18T02:04:02;41.90;;;23.30;;
32295;SDS011;18781;51.550;5.418;2023-11-18T02:06:30;43.03;;;24.57;;
32295;SDS011;18781;51.550;5.418;2023-11-18T02:08:56;41.88;;;23.77;;
32295;SDS011;18781;51.550;5.418;2023-11-18T02:13:54;40.00;;;23.88;;
32295;SDS011;18781;51.550;5.418;2023-11-18T02:16:28;40.33;;;24.00;;
32295;SDS011;18781;51.550;5.418;2023-11-18T02:18:54;44.85;;;25.38;;
32295;SDS011;18781;51.550;5.418;2023-11-18T02:21:20;40.20;;;23.65;;
32295;SDS011;18781;51.550;5.418;2023-11-18T02:23:48;42.10;;;24.20;;
32295;SDS011;18781;51.550;5.418;2023-11-18T02:26:20;39.63;;;24.52;;
32295;SDS011;18781;51.550;5.418;2023-11-18T02:28:47;42.80;;;23.98;;
32295;SDS011;18781;51.550;5.418;2023-11-18T02:31:15;42.17;;;25.27;;
32295;SDS011;18781;51.550;5.418;2023-11-18T02:33:52;44.00;;;25.35;;
32295;SDS011;18781;51.550;5.418;2023-11-18T02:36:30;39.97;;;23.15;;
32295;SDS011;18781;51.550;5.418;2023-11-18T02:39:04;39.70;;;23.02;;
32295;SDS011;18781;51.550;5.418;2023-11-18T02:41:34;41.35;;;24.42;;
32295;SDS011;18781;51.550;5.418;2023-11-18T02:44:01;44.08;;;24.65;;
32295;SDS011;18781;51.550;5.418;2023-11-18T02:46:33;43.13;;;24.33;;
32295;SDS011;18781;51.550;5.418;2023-11-18T02:48:59;42.05;;;24.75;;
32295;SDS011;18781;51.550;5.418;2023-11-18T02:51:25;43.72;;;23.73;;
32295;SDS011;18781;51.550;5.418;2023-11-18T02:53:51;43.88;;;24.70;;
32295;SDS011;18781;51.550;5.418;2023-11-18T02:56:16;43.15;;;24.08;;
32295;SDS011;18781;51.550;5.418;2023-11-18T02:58:43;47.08;;;23.95;;
32295;SDS011;18781;51.550;5.418;2023-11-18T03:01:09;41.75;;;23.77;;
32295;SDS011;18781;51.550;5.418;2023-11-18T03:03:35;42.92;;;24.25;;
32295;SDS011;18781;51.550;5.418;2023-11-18T03:06:00;43.58;;;24.45;;
32295;SDS011;18781;51.550;5.418;2023-11-18T03:08:26;41.15;;;24.70;;
32295;SDS011;18781;51.550;5.418;2023-11-18T03:10:53;42.67;;;24.55;;
32295;SDS011;18781;51.550;5.418;2023-11-18T03:13:19;40.25;;;24.77;;
32295;SDS011;18781;51.550;5.418;2023-11-18T03:15:45;46.17;;;23.92;;
32295;SDS011;18781;51.550;5.418;2023-11-18T03:18:13;40.55;;;24.10;;
32295;SDS011;18781;51.550;5.418;2023-11-18T03:20:40;40.65;;;23.23;;
32295;SDS011;18781;51.550;5.418;2023-11-18T03:23:05;43.67;;;23.90;;
32295;SDS011;18781;51.550;5.418;2023-11-18T03:25:34;39.25;;;23.40;;
32295;SDS011;18781;51.550;5.418;2023-11-18T03:28:00;44.28;;;23.92;;
32295;SDS011;18781;51.550;5.418;2023-11-18T03:30:25;39.30;;;23.45;;
32295;SDS011;18781;51.550;5.418;2023-11-18T03:32:51;41.38;;;24.55;;
32295;SDS011;18781;51.550;5.418;2023-11-18T03:35:17;41.40;;;25.33;;
32295;SDS011;18781;51.550;5.418;2023-11-18T03:37:42;46.20;;;25.92;;
32295;SDS011;18781;51.550;5.418;2023-11-18T03:40:08;46.38;;;26.15;;
32295;SDS011;18781;51.550;5.418;2023-11-18T03:42:35;45.65;;;25.92;;
32295;SDS011;18781;51.550;5.418;2023-11-18T03:45:02;40.92;;;24.75;;
32295;SDS011;18781;51.550;5.418;2023-11-18T03:47:28;43.03;;;25.50;;
32295;SDS011;18781;51.550;5.418;2023-11-18T03:49:55;45.10;;;25.80;;
32295;SDS011;18781;51.550;5.418;2023-11-18T03:52:20;47.55;;;25.55;;
32295;SDS011;18781;51.550;5.418;2023-11-18T03:54:46;45.50;;;25.17;;
32295;SDS011;18781;51.550;5.418;2023-11-18T03:57:11;41.50;;;24.25;;
32295;SDS011;18781;51.550;5.418;2023-11-18T03:59:38;38.67;;;24.00;;
32295;SDS011;18781;51.550;5.418;2023-11-18T04:02:05;45.50;;;24.70;;
32295;SDS011;18781;51.550;5.418;2023-11-18T04:04:32;42.72;;;25.98;;
32295;SDS011;18781;51.550;5.418;2023-11-18T04:06:57;42.97;;;24.98;;
32295;SDS011;18781;51.550;5.418;2023-11-18T04:09:26;45.20;;;23.92;;
32295;SDS011;18781;51.550;5.418;2023-11-18T04:11:52;43.15;;;23.73;;
32295;SDS011;18781;51.550;5.418;2023-11-18T04:14:17;39.15;;;21.80;;
32295;SDS011;18781;51.550;5.418;2023-11-18T04:16:44;39.22;;;22.92;;
32295;SDS011;18781;51.550;5.418;2023-11-18T04:19:10;36.35;;;22.30;;
32295;SDS011;18781;51.550;5.418;2023-11-18T04:21:37;41.17;;;23.23;;
32295;SDS011;18781;51.550;5.418;2023-11-18T04:24:03;46.20;;;23.52;;
32295;SDS011;18781;51.550;5.418;2023-11-18T04:26:30;41.40;;;22.25;;
32295;SDS011;18781;51.550;5.418;2023-11-18T04:28:56;46.80;;;23.17;;
32295;SDS011;18781;51.550;5.418;2023-11-18T04:31:23;39.33;;;21.25;;
32295;SDS011;18781;51.550;5.418;2023-11-18T04:33:49;45.42;;;23.92;;
32295;SDS011;18781;51.550;5.418;2023-11-18T04:36:15;46.00;;;23.98;;
32295;SDS011;18781;51.550;5.418;2023-11-18T04:38:41;49.13;;;22.65;;
32295;SDS011;18781;51.550;5.418;2023-11-18T04:41:07;40.33;;;21.77;;
32295;SDS011;18781;51.550;5.418;2023-11-18T04:43:32;44.05;;;21.63;;
32295;SDS011;18781;51.550;5.418;2023-11-18T04:45:58;45.13;;;21.75;;
32295;SDS011;18781;51.550;5.418;2023-11-18T04:48:24;49.90;;;21.63;;
32295;SDS011;18781;51.550;5.418;2023-11-18T04:50:50;45.10;;;21.63;;
32295;SDS011;18781;51.550;5.418;2023-11-18T04:53:16;42.47;;;20.33;;
32295;SDS011;18781;51.550;5.418;2023-11-18T04:55:41;42.78;;;20.98;;
32295;SDS011;18781;51.550;5.418;2023-11-18T04:58:07;42.95;;;20.70;;
32295;SDS011;18781;51.550;5.418;2023-11-18T05:00:37;42.58;;;20.35;;
32295;SDS011;18781;51.550;5.418;2023-11-18T05:03:06;43.63;;;20.80;;
32295;SDS011;18781;51.550;5.418;2023-11-18T05:05:36;41.05;;;20.75;;
32295;SDS011;18781;51.550;5.418;2023-11-18T05:08:04;39.63;;;19.15;;
32295;SDS011;18781;51.550;5.418;2023-11-18T05:10:34;39.75;;;19.90;;
32295;SDS011;18781;51.550;5.418;2023-11-18T05:13:00;36.60;;;18.98;;
32295;SDS011;18781;51.550;5.418;2023-11-18T05:15:26;39.17;;;20.35;;
32295;SDS011;18781;51.550;5.418;2023-11-18T05:17:54;38.78;;;19.33;;
32295;SDS011;18781;51.550;5.418;2023-11-18T05:20:20;39.53;;;20.00;;
32295;SDS011;18781;51.550;5.418;2023-11-18T05:22:47;34.15;;;17.75;;
32295;SDS011;18781;51.550;5.418;2023-11-18T05:25:13;42.88;;;19.95;;
32295;SDS011;18781;51.550;5.418;2023-11-18T05:27:39;32.28;;;16.77;;
32295;SDS011;18781;51.550;5.418;2023-11-18T05:30:09;36.83;;;18.38;;
32295;SDS011;18781;51.550;5.418;2023-11-18T05:32:36;34.92;;;17.45;;
32295;SDS011;18781;51.550;5.418;2023-11-18T05:35:03;36.15;;;18.77;;
32295;SDS011;18781;51.550;5.418;2023-11-18T05:37:30;41.35;;;17.80;;
32295;SDS011;18781;51.550;5.418;2023-11-18T05:40:00;35.58;;;18.27;;
32295;SDS011;18781;51.550;5.418;2023-11-18T05:42:31;33.53;;;16.90;;
32295;SDS011;18781;51.550;5.418;2023-11-18T05:44:57;30.02;;;16.52;;
32295;SDS011;18781;51.550;5.418;2023-11-18T05:47:27;36.15;;;17.92;;
32295;SDS011;18781;51.550;5.418;2023-11-18T05:49:53;27.70;;;16.33;;
32295;SDS011;18781;51.550;5.418;2023-11-18T05:52:20;32.28;;;16.08;;
32295;SDS011;18781;51.550;5.418;2023-11-18T05:54:46;29.25;;;16.23;;
32295;SDS011;18781;51.550;5.418;2023-11-18T05:57:15;30.52;;;17.25;;
32295;SDS011;18781;51.550;5.418;2023-11-18T05:59:43;31.05;;;16.50;;
32295;SDS011;18781;51.550;5.418;2023-11-18T06:02:09;27.05;;;14.40;;
32295;SDS011;18781;51.550;5.418;2023-11-18T06:04:42;31.20;;;15.65;;
32295;SDS011;18781;51.550;5.418;2023-11-18T06:07:09;31.95;;;15.30;;
32295;SDS011;18781;51.550;5.418;2023-11-18T06:09:34;31.17;;;18.15;;
32295;SDS011;18781;51.550;5.418;2023-11-18T06:12:00;89.97;;;47.53;;
32295;SDS011;18781;51.550;5.418;2023-11-18T06:14:25;79.45;;;42.28;;
32295;SDS011;18781;51.550;5.418;2023-11-18T06:16:51;82.63;;;42.92;;
32295;SDS011;18781;51.550;5.418;2023-11-18T06:19:17;58.80;;;30.73;;
32295;SDS011;18781;51.550;5.418;2023-11-18T06:21:43;39.67;;;21.23;;
32295;SDS011;18781;51.550;5.418;2023-11-18T06:24:09;25.75;;;14.40;;
32295;SDS011;18781;51.550;5.418;2023-11-18T06:26:36;29.88;;;13.80;;
32295;SDS011;18781;51.550;5.418;2023-11-18T06:29:02;27.35;;;13.00;;
32295;SDS011;18781;51.550;5.418;2023-11-18T06:31:28;22.23;;;12.52;;
32295;SDS011;18781;51.550;5.418;2023-11-18T06:33:54;21.42;;;12.57;;
32295;SDS011;18781;51.550;5.418;2023-11-18T06:36:20;29.05;;;14.20;;
32295;SDS011;18781;51.550;5.418;2023-11-18T06:38:47;29.02;;;13.30;;
32295;SDS011;18781;51.550;5.418;2023-11-18T06:41:14;28.17;;;14.20;;
32295;SDS011;18781;51.550;5.418;2023-11-18T06:43:48;27.27;;;14.07;;
32295;SDS011;18781;51.550;5.418;2023-11-18T06:46:22;31.80;;;15.43;;
32295;SDS011;18781;51.550;5.418;2023-11-18T06:48:49;30.80;;;14.25;;
32295;SDS011;18781;51.550;5.418;2023-11-18T06:51:28;28.35;;;12.63;;
32295;SDS011;18781;51.550;5.418;2023-11-18T06:53:55;23.73;;;13.05;;
32295;SDS011;18781;51.550;5.418;2023-11-18T06:56:24;29.55;;;13.82;;
32295;SDS011;18781;51.550;5.418;2023-11-18T06:58:50;30.02;;;15.80;;
32295;SDS011;18781;51.550;5.418;2023-11-18T07:01:16;32.50;;;15.63;;
32295;SDS011;18781;51.550;5.418;2023-11-18T07:03:43;22.35;;;13.50;;
32295;SDS011;18781;51.550;5.418;2023-11-18T07:06:10;21.55;;;14.00;;
32295;SDS011;18781;51.550;5.418;2023-11-18T07:08:36;24.45;;;14.10;;
32295;SDS011;18781;51.550;5.418;2023-11-18T07:11:02;25.45;;;14.20;;
32295;SDS011;18781;51.550;5.418;2023-11-18T07:13:29;31.38;;;15.30;;
32295;SDS011;18781;51.550;5.418;2023-11-18T07:15:54;21.75;;;12.55;;
32295;SDS011;18781;51.550;5.418;2023-11-18T07:18:22;21.85;;;11.70;;
32295;SDS011;18781;51.550;5.418;2023-11-18T07:20:49;20.63;;;11.32;;
32295;SDS011;18781;51.550;5.418;2023-11-18T07:23:16;20.20;;;12.27;;
32295;SDS011;18781;51.550;5.418;2023-11-18T07:25:43;21.20;;;10.75;;
32295;SDS011;18781;51.550;5.418;2023-11-18T07:28:09;21.80;;;10.68;;
32295;SDS011;18781;51.550;5.418;2023-11-18T07:30:35;27.65;;;10.10;;
32295;SDS011;18781;51.550;5.418;2023-11-18T07:33:02;20.65;;;9.80;;
32295;SDS011;18781;51.550;5.418;2023-11-18T07:35:28;22.35;;;9.30;;
32295;SDS011;18781;51.550;5.418;2023-11-18T07:37:54;20.33;;;9.85;;
32295;SDS011;18781;51.550;5.418;2023-11-18T07:40:21;19.15;;;8.90;;
32295;SDS011;18781;51.550;5.418;2023-11-18T07:42:53;23.73;;;8.60;;
32295;SDS011;18781;51.550;5.418;2023-11-18T07:45:21;17.02;;;8.52;;
32295;SDS011;18781;51.550;5.418;2023-11-18T07:47:48;21.45;;;8.77;;
32295;SDS011;18781;51.550;5.418;2023-11-18T07:50:16;17.35;;;8.18;;
32295;SDS011;18781;51.550;5.418;2023-11-18T07:52:42;20.67;;;8.25;;
32295;SDS011;18781;51.550;5.418;2023-11-18T07:55:08;15.02;;;7.93;;
32295;SDS011;18781;51.550;5.418;2023-11-18T07:57:36;21.10;;;7.68;;
32295;SDS011;18781;51.550;5.418;2023-11-18T08:00:02;19.67;;;7.45;;
32295;SDS011;18781;51.550;5.418;2023-11-18T08:02:34;13.52;;;6.38;;
32295;SDS011;18781;51.550;5.418;2023-11-18T08:05:01;16.70;;;6.80;;
32295;SDS011;18781;51.550;5.418;2023-11-18T08:07:28;13.20;;;6.35;;
32295;SDS011;18781;51.550;5.418;2023-11-18T08:09:53;18.13;;;5.93;;
32295;SDS011;18781;51.550;5.418;2023-11-18T08:12:19;15.18;;;6.05;;
32295;SDS011;18781;51.550;5.418;2023-11-18T08:14:45;17.45;;;7.03;;
32295;SDS011;18781;51.550;5.418;2023-11-18T08:17:12;16.27;;;6.70;;
32295;SDS011;18781;51.550;5.418;2023-11-18T08:19:38;18.85;;;5.82;;
32295;SDS011;18781;51.550;5.418;2023-11-18T08:22:04;19.92;;;6.38;;
32295;SDS011;18781;51.550;5.418;2023-11-18T08:24:31;13.27;;;5.75;;
32295;SDS011;18781;51.550;5.418;2023-11-18T08:26:58;13.40;;;5.78;;
32295;SDS011;18781;51.550;5.418;2023-11-18T08:29:24;18.90;;;5.72;;
32295;SDS011;18781;51.550;5.418;2023-11-18T08:31:56;12.80;;;5.55;;
32295;SDS011;18781;51.550;5.418;2023-11-18T08:34:21;11.05;;;5.43;;
32295;SDS011;18781;51.550;5.418;2023-11-18T08:36:47;13.13;;;5.05;;
32295;SDS011;18781;51.550;5.418;2023-11-18T08:39:12;20.63;;;5.85;;
32295;SDS011;18781;51.550;5.418;2023-11-18T08:41:41;16.65;;;5.35;;
32295;SDS011;18781;51.550;5.418;2023-11-18T08:44:08;89.35;;;20.67;;
32295;SDS011;18781;51.550;5.418;2023-11-18T08:46:37;57.05;;;13.70;;
32295;SDS011;18781;51.550;5.418;2023-11-18T08:49:03;65.07;;;17.35;;
32295;SDS011;18781;51.550;5.418;2023-11-18T08:51:35;30.85;;;8.05;;
32295;SDS011;18781;51.550;5.418;2023-11-18T08:54:07;24.42;;;6.43;;
32295;SDS011;18781;51.550;5.418;2023-11-18T08:56:47;14.15;;;6.25;;
32295;SDS011;18781;51.550;5.418;2023-11-18T08:59:20;17.38;;;6.13;;
32295;SDS011;18781;51.550;5.418;2023-11-18T09:01:52;15.98;;;5.68;;
32295;SDS011;18781;51.550;5.418;2023-11-18T09:04:21;7.47;;;3.78;;
32295;SDS011;18781;51.550;5.418;2023-11-18T09:06:48;17.23;;;5.95;;
32295;SDS011;18781;51.550;5.418;2023-11-18T09:09:14;15.48;;;6.20;;
32295;SDS011;18781;51.550;5.418;2023-11-18T09:11:40;13.77;;;5.90;;
32295;SDS011;18781;51.550;5.418;2023-11-18T09:14:07;18.20;;;6.32;;
32295;SDS011;18781;51.550;5.418;2023-11-18T09:16:33;15.75;;;6.13;;
32295;SDS011;18781;51.550;5.418;2023-11-18T09:19:04;14.88;;;5.60;;
32295;SDS011;18781;51.550;5.418;2023-11-18T09:21:31;16.13;;;5.97;;
32295;SDS011;18781;51.550;5.418;2023-11-18T09:24:00;17.27;;;5.38;;
32295;SDS011;18781;51.550;5.418;2023-11-18T09:26:30;21.48;;;5.43;;
32295;SDS011;18781;51.550;5.418;2023-11-18T09:28:56;18.05;;;5.95;;
32295;SDS011;18781;51.550;5.418;2023-11-18T09:31:23;16.90;;;5.70;;
32295;SDS011;18781;51.550;5.418;2023-11-18T09:33:48;15.27;;;6.70;;
32295;SDS011;18781;51.550;5.418;2023-11-18T09:36:17;12.88;;;5.30;;
32295;SDS011;18781;51.550;5.418;2023-11-18T09:38:44;17.13;;;5.47;;
32295;SDS011;18781;51.550;5.418;2023-11-18T09:41:14;13.88;;;5.35;;
32295;SDS011;18781;51.550;5.418;2023-11-18T09:43:42;17.45;;;5.88;;
32295;SDS011;18781;51.550;5.418;2023-11-18T09:46:22;20.77;;;5.68;;
32295;SDS011;18781;51.550;5.418;2023-11-18T09:51:39;14.23;;;4.93;;
32295;SDS011;18781;51.550;5.418;2023-11-18T09:54:10;13.60;;;5.43;;
32295;SDS011;18781;51.550;5.418;2023-11-18T09:57:19;15.00;;;5.85;;
32295;SDS011;18781;51.550;5.418;2023-11-18T09:59:56;16.65;;;5.55;;
32295;SDS011;18781;51.550;5.418;2023-11-18T10:02:44;13.23;;;5.55;;
32295;SDS011;18781;51.550;5.418;2023-11-18T10:05:11;15.10;;;6.05;;
32295;SDS011;18781;51.550;5.418;2023-11-18T10:07:39;12.38;;;4.97;;
32295;SDS011;18781;51.550;5.418;2023-11-18T10:10:07;9.40;;;5.10;;
32295;SDS011;18781;51.550;5.418;2023-11-18T10:12:40;16.75;;;5.00;;
32295;SDS011;18781;51.550;5.418;2023-11-18T10:15:09;11.25;;;5.28;;
32295;SDS011;18781;51.550;5.418;2023-11-18T10:17:42;13.23;;;5.40;;
32295;SDS011;18781;51.550;5.418;2023-11-18T10:23:15;13.77;;;4.95;;
32295;SDS011;18781;51.550;5.418;2023-11-18T10:25:48;16.33;;;5.00;;
32295;SDS011;18781;51.550;5.418;2023-11-18T10:28:27;17.25;;;5.18;;
32295;SDS011;18781;51.550;5.418;2023-11-18T10:30:55;12.57;;;5.68;;
32295;SDS011;18781;51.550;5.418;2023-11-18T10:33:23;12.00;;;4.85;;
32295;SDS011;18781;51.550;5.418;2023-11-18T10:35:55;12.25;;;5.38;;
32295;SDS011;18781;51.550;5.418;2023-11-18T10:38:22;14.27;;;5.03;;
32295;SDS011;18781;51.550;5.418;2023-11-18T10:40:53;16.42;;;4.70;;
32295;SDS011;18781;51.550;5.418;2023-11-18T10:43:20;11.60;;;5.05;;
32295;SDS011;18781;51.550;5.418;2023-11-18T10:45:49;12.63;;;4.60;;
32295;SDS011;18781;51.550;5.418;2023-11-18T10:48:18;13.50;;;4.65;;
32295;SDS011;18781;51.550;5.418;2023-11-18T10:50:46;14.73;;;5.15;;
32295;SDS011;18781;51.550;5.418;2023-11-18T10:53:12;14.00;;;4.75;;
32295;SDS011;18781;51.550;5.418;2023-11-18T10:55:40;12.60;;;4.55;;
32295;SDS011;18781;51.550;5.418;2023-11-18T10:58:06;14.63;;;5.00;;
32295;SDS011;18781;51.550;5.418;2023-11-18T11:00:48;17.02;;;5.72;;
32295;SDS011;18781;51.550;5.418;2023-11-18T11:03:15;13.98;;;4.38;;
32295;SDS011;18781;51.550;5.418;2023-11-18T11:05:41;14.65;;;5.30;;
32295;SDS011;18781;51.550;5.418;2023-11-18T11:08:08;13.15;;;4.47;;
32295;SDS011;18781;51.550;5.418;2023-11-18T11:13:06;10.68;;;3.90;;
32295;SDS011;18781;51.550;5.418;2023-11-18T11:15:33;15.18;;;4.53;;
32295;SDS011;18781;51.550;5.418;2023-11-18T11:18:08;12.30;;;4.50;;
32295;SDS011;18781;51.550;5.418;2023-11-18T11:23:40;12.05;;;4.38;;
32295;SDS011;18781;51.550;5.418;2023-11-18T11:26:33;10.90;;;4.03;;
32295;SDS011;18781;51.550;5.418;2023-11-18T11:32:03;17.15;;;5.15;;
32295;SDS011;18781;51.550;5.418;2023-11-18T11:34:53;16.85;;;5.75;;
32295;SDS011;18781;51.550;5.418;2023-11-18T11:37:22;12.75;;;5.10;;
32295;SDS011;18781;51.550;5.418;2023-11-18T11:42:18;13.40;;;3.75;;
32295;SDS011;18781;51.550;5.418;2023-11-18T11:44:47;12.15;;;3.70;;
32295;SDS011;18781;51.550;5.418;2023-11-18T11:47:14;14.13;;;4.35;;
32295;SDS011;18781;51.550;5.418;2023-11-18T11:49:52;8.32;;;3.83;;
32295;SDS011;18781;51.550;5.418;2023-11-18T11:52:25;11.02;;;4.03;;
32295;SDS011;18781;51.550;5.418;2023-11-18T11:54:56;9.95;;;3.42;;
32295;SDS011;18781;51.550;5.418;2023-11-18T11:57:38;16.50;;;5.93;;
32295;SDS011;18781;51.550;5.418;2023-11-18T12:00:04;11.15;;;4.47;;
32295;SDS011;18781;51.550;5.418;2023-11-18T12:02:40;13.45;;;4.10;;
32295;SDS011;18781;51.550;5.418;2023-11-18T12:05:15;12.68;;;3.60;;
32295;SDS011;18781;51.550;5.418;2023-11-18T12:07:44;13.77;;;3.63;;
32295;SDS011;18781;51.550;5.418;2023-11-18T12:10:11;11.77;;;3.70;;
32295;SDS011;18781;51.550;5.418;2023-11-18T12:12:45;11.95;;;3.00;;
32295;SDS011;18781;51.550;5.418;2023-11-18T12:15:11;10.55;;;3.25;;
32295;SDS011;18781;51.550;5.418;2023-11-18T12:18:10;11.25;;;2.85;;
32295;SDS011;18781;51.550;5.418;2023-11-18T12:20:41;10.45;;;3.03;;
32295;SDS011;18781;51.550;5.418;2023-11-18T12:23:19;8.13;;;2.70;;
32295;SDS011;18781;51.550;5.418;2023-11-18T12:25:48;15.73;;;3.55;;
32295;SDS011;18781;51.550;5.418;2023-11-18T12:28:19;7.05;;;2.72;;
32295;SDS011;18781;51.550;5.418;2023-11-18T12:30:51;16.42;;;3.67;;
32295;SDS011;18781;51.550;5.418;2023-11-18T12:41:10;11.35;;;3.35;;
32295;SDS011;18781;51.550;5.418;2023-11-18T12:47:00;5.75;;;2.30;;
32295;SDS011;18781;51.550;5.418;2023-11-18T12:49:37;5.97;;;2.60;;
32295;SDS011;18781;51.550;5.418;2023-11-18T12:52:06;8.20;;;2.45;;
32295;SDS011;18781;51.550;5.418;2023-11-18T12:54:33;9.02;;;2.90;;
32295;SDS011;18781;51.550;5.418;2023-11-18T12:57:03;10.10;;;2.67;;
32295;SDS011;18781;51.550;5.418;2023-11-18T12:59:34;8.57;;;2.40;;
32295;SDS011;18781;51.550;5.418;2023-11-18T13:02:01;5.95;;;2.58;;
32295;SDS011;18781;51.550;5.418;2023-11-18T13:04:30;8.55;;;2.97;;
32295;SDS011;18781;51.550;5.418;2023-11-18T13:06:55;6.30;;;2.72;;
32295;SDS011;18781;51.550;5.418;2023-11-18T13:09:23;5.55;;;2.70;;
32295;SDS011;18781;51.550;5.418;2023-11-18T13:11:55;11.02;;;2.60;;
32295;SDS011;18781;51.550;5.418;2023-11-18T13:14:22;9.05;;;2.58;;
32295;SDS011;18781;51.550;5.418;2023-11-18T13:16:50;9.80;;;3.00;;
32295;SDS011;18781;51.550;5.418;2023-11-18T13:19:24;10.93;;;3.63;;
32295;SDS011;18781;51.550;5.418;2023-11-18T13:21:57;6.68;;;2.40;;
32295;SDS011;18781;51.550;5.418;2023-11-18T13:24:28;6.50;;;2.60;;
32295;SDS011;18781;51.550;5.418;2023-11-18T13:26:57;6.83;;;2.20;;
32295;SDS011;18781;51.550;5.418;2023-11-18T13:29:28;5.82;;;2.22;;
32295;SDS011;18781;51.550;5.418;2023-11-18T13:31:54;3.08;;;2.15;;
32295;SDS011;18781;51.550;5.418;2023-11-18T13:34:21;4.88;;;2.08;;
32295;SDS011;18781;51.550;5.418;2023-11-18T13:36:47;5.60;;;2.45;;
32295;SDS011;18781;51.550;5.418;2023-11-18T13:39:20;5.95;;;2.70;;
32295;SDS011;18781;51.550;5.418;2023-11-18T13:41:48;8.45;;;2.90;;
32295;SDS011;18781;51.550;5.418;2023-11-18T13:44:34;6.43;;;2.95;;
32295;SDS011;18781;51.550;5.418;2023-11-18T13:47:00;5.78;;;2.30;;
32295;SDS011;18781;51.550;5.418;2023-11-18T13:49:30;6.45;;;2.88;;
32295;SDS011;18781;51.550;5.418;2023-11-18T13:51:57;3.53;;;2.10;;
32295;SDS011;18781;51.550;5.418;2023-11-18T13:54:24;5.35;;;2.63;;
32295;SDS011;18781;51.550;5.418;2023-11-18T13:56:50;4.57;;;2.35;;
32295;SDS011;18781;51.550;5.418;2023-11-18T13:59:17;6.05;;;2.67;;
32295;SDS011;18781;51.550;5.418;2023-11-18T14:01:43;6.22;;;3.10;;
32295;SDS011;18781;51.550;5.418;2023-11-18T14:04:09;4.68;;;2.70;;
32295;SDS011;18781;51.550;5.418;2023-11-18T14:06:35;3.13;;;1.73;;
32295;SDS011;18781;51.550;5.418;2023-11-18T14:09:02;3.25;;;2.08;;
32295;SDS011;18781;51.550;5.418;2023-11-18T14:11:29;12.02;;;6.95;;
32295;SDS011;18781;51.550;5.418;2023-11-18T14:13:55;4.65;;;2.25;;
32295;SDS011;18781;51.550;5.418;2023-11-18T14:16:21;8.68;;;3.88;;
32295;SDS011;18781;51.550;5.418;2023-11-18T14:18:48;17.13;;;7.05;;
32295;SDS011;18781;51.550;5.418;2023-11-18T14:21:14;7.63;;;3.67;;
32295;SDS011;18781;51.550;5.418;2023-11-18T14:23:40;3.72;;;1.77;;
32295;SDS011;18781;51.550;5.418;2023-11-18T14:26:06;4.35;;;2.17;;
32295;SDS011;18781;51.550;5.418;2023-11-18T14:28:35;4.43;;;1.60;;
32295;SDS011;18781;51.550;5.418;2023-11-18T14:31:01;2.20;;;1.40;;
32295;SDS011;18781;51.550;5.418;2023-11-18T14:33:29;3.63;;;1.25;;
32295;SDS011;18781;51.550;5.418;2023-11-18T14:35:58;6.68;;;3.22;;
32295;SDS011;18781;51.550;5.418;2023-11-18T14:38:26;5.90;;;3.42;;
32295;SDS011;18781;51.550;5.418;2023-11-18T14:40:51;4.20;;;2.53;;
32295;SDS011;18781;51.550;5.418;2023-11-18T14:43:18;4.72;;;2.20;;
32295;SDS011;18781;51.550;5.418;2023-11-18T14:45:44;2.50;;;1.30;;
32295;SDS011;18781;51.550;5.418;2023-11-18T14:48:10;3.22;;;1.42;;
32295;SDS011;18781;51.550;5.418;2023-11-18T14:50:35;5.68;;;3.15;;
32295;SDS011;18781;51.550;5.418;2023-11-18T14:53:01;5.32;;;2.75;;
32295;SDS011;18781;51.550;5.418;2023-11-18T14:55:31;2.85;;;1.50;;
32295;SDS011;18781;51.550;5.418;2023-11-18T14:57:58;4.47;;;3.13;;
32295;SDS011;18781;51.550;5.418;2023-11-18T15:00:23;1.58;;;1.10;;
32295;SDS011;18781;51.550;5.418;2023-11-18T15:02:57;2.13;;;1.02;;
32295;SDS011;18781;51.550;5.418;2023-11-18T15:05:22;5.32;;;1.38;;
32295;SDS011;18781;51.550;5.418;2023-11-18T15:07:52;3.15;;;1.80;;